createdAt,value
2022-07-29T00:01:50.503Z,16.80
2022-07-29T00:04:17.930Z,16.70
2022-07-29T00:06:45.179Z,16.70
2022-07-29T00:09:12.247Z,16.70
2022-07-29T00:11:39.302Z,16.60
2022-07-29T00:14:06.441Z,16.60
2022-07-29T00:16:33.406Z,16.60
2022-07-29T00:19:02.323Z,16.60
2022-07-29T00:21:29.688Z,16.60
2022-07-29T00:23:56.806Z,16.60
2022-07-29T00:26:23.815Z,16.60
2022-07-29T00:28:50.881Z,16.60
2022-07-29T00:31:17.856Z,16.60
2022-07-29T00:33:44.954Z,16.60
2022-07-29T00:36:12.036Z,16.60
2022-07-29T00:38:39.121Z,16.60
2022-07-29T00:41:06.100Z,16.60
2022-07-29T00:43:33.327Z,16.60
2022-07-29T00:46:00.306Z,16.60
2022-07-29T00:48:27.285Z,16.60
2022-07-29T00:50:54.763Z,16.70
2022-07-29T00:53:21.870Z,16.70
2022-07-29T00:55:49.061Z,16.70
2022-07-29T00:58:16.108Z,16.70
2022-07-29T01:00:43.688Z,16.70
2022-07-29T01:03:12.580Z,16.70
2022-07-29T01:05:49.900Z,16.70
2022-07-29T01:08:19.131Z,16.60
2022-07-29T01:10:46.157Z,16.60
2022-07-29T01:13:13.176Z,16.70
2022-07-29T01:15:49.198Z,16.70
2022-07-29T01:18:29.779Z,16.70
2022-07-29T01:21:20.296Z,16.70
2022-07-29T01:23:53.261Z,16.70
2022-07-29T01:26:29.998Z,16.70
2022-07-29T01:29:24.038Z,16.70
2022-07-29T01:32:01.350Z,16.70
2022-07-29T01:34:45.047Z,16.70
2022-07-29T01:37:33.900Z,16.70
2022-07-29T01:40:01.124Z,16.80
2022-07-29T01:42:40.027Z,16.80
2022-07-29T01:45:11.902Z,16.80
2022-07-29T01:47:43.610Z,16.80
2022-07-29T01:50:14.061Z,16.80
2022-07-29T01:52:47.803Z,16.80
2022-07-29T01:55:16.083Z,16.80
2022-07-29T01:57:45.288Z,16.90
2022-07-29T02:00:12.989Z,16.90
2022-07-29T02:02:41.450Z,16.90
2022-07-29T02:05:09.291Z,16.90
2022-07-29T02:07:36.275Z,16.80
2022-07-29T02:10:03.909Z,16.80
2022-07-29T02:12:30.898Z,16.80
2022-07-29T02:14:57.866Z,16.70
2022-07-29T02:17:33.695Z,16.70
2022-07-29T02:20:03.232Z,16.70
2022-07-29T02:22:31.738Z,16.60
2022-07-29T02:24:59.315Z,16.60
2022-07-29T02:27:28.342Z,16.60
2022-07-29T02:29:55.444Z,16.50
2022-07-29T02:32:22.900Z,16.50
2022-07-29T02:34:50.338Z,16.40
2022-07-29T02:37:17.331Z,16.40
2022-07-29T02:39:45.109Z,16.40
2022-07-29T02:42:14.148Z,16.40
2022-07-29T02:44:41.148Z,16.30
2022-07-29T02:47:12.904Z,16.30
2022-07-29T02:49:59.161Z,16.30
2022-07-29T02:52:28.728Z,16.20
2022-07-29T02:55:04.097Z,16.10
2022-07-29T02:57:53.998Z,16.00
2022-07-29T03:00:23.152Z,16.00
2022-07-29T03:02:52.494Z,15.90
2022-07-29T03:05:20.891Z,15.80
2022-07-29T03:07:52.396Z,15.70
2022-07-29T03:10:19.593Z,15.70
2022-07-29T03:12:46.662Z,15.60
2022-07-29T03:15:13.760Z,15.50
2022-07-29T03:17:40.791Z,15.40
2022-07-29T03:20:11.694Z,15.30
2022-07-29T03:22:47.834Z,15.20
2022-07-29T03:25:15.796Z,15.20
2022-07-29T03:27:43.138Z,15.10
2022-07-29T03:30:10.685Z,15.10
2022-07-29T03:32:38.374Z,15.00
2022-07-29T03:35:07.654Z,15.00
2022-07-29T03:37:34.768Z,14.90
2022-07-29T03:40:02.622Z,14.90
2022-07-29T03:42:34.323Z,14.80
2022-07-29T03:45:03.586Z,14.70
2022-07-29T03:47:43.568Z,14.60
2022-07-29T03:50:17.893Z,14.60
2022-07-29T03:52:45.553Z,14.60
2022-07-29T03:55:12.895Z,14.60
2022-07-29T03:57:39.999Z,14.50
2022-07-29T04:00:07.683Z,14.50
2022-07-29T04:02:34.811Z,14.50
2022-07-29T04:05:01.980Z,14.40
2022-07-29T04:07:29.112Z,14.40
2022-07-29T04:09:56.143Z,14.40
2022-07-29T04:12:23.324Z,14.40
2022-07-29T04:14:51.242Z,14.40
2022-07-29T04:17:18.245Z,14.30
2022-07-29T04:19:45.226Z,14.30
2022-07-29T04:22:12.275Z,14.30
2022-07-29T04:24:42.850Z,14.20
2022-07-29T04:27:11.671Z,14.20
2022-07-29T04:29:56.571Z,14.10
2022-07-29T04:32:24.750Z,14.10
2022-07-29T04:34:51.882Z,14.10
2022-07-29T04:37:18.951Z,14.00
2022-07-29T04:39:46.023Z,14.00
2022-07-29T04:42:13.405Z,14.00
2022-07-29T04:44:43.035Z,14.00
2022-07-29T04:47:10.441Z,14.00
2022-07-29T04:49:40.564Z,14.00
2022-07-29T04:52:07.797Z,14.00
2022-07-29T04:54:34.736Z,14.00
2022-07-29T04:57:01.749Z,13.90
2022-07-29T04:59:28.775Z,13.80
2022-07-29T05:01:55.845Z,13.90
2022-07-29T05:04:22.967Z,13.90
2022-07-29T05:06:50.042Z,14.00
2022-07-29T05:09:17.097Z,14.00
2022-07-29T05:11:44.086Z,14.10
2022-07-29T05:14:11.035Z,14.10
2022-07-29T05:16:38.058Z,14.20
2022-07-29T05:19:05.028Z,14.20
2022-07-29T05:21:32.018Z,14.30
2022-07-29T05:23:59.028Z,14.30
2022-07-29T05:26:26.028Z,14.40
2022-07-29T05:28:53.033Z,14.60
2022-07-29T05:31:20.113Z,14.90
2022-07-29T05:33:47.163Z,15.20
2022-07-29T05:36:14.194Z,15.60
2022-07-29T05:38:41.127Z,15.80
2022-07-29T05:41:08.169Z,16.20
2022-07-29T05:43:35.089Z,16.70
2022-07-29T05:46:02.159Z,17.30
2022-07-29T05:48:29.219Z,17.90
2022-07-29T05:50:56.204Z,18.40
2022-07-29T05:53:23.448Z,18.80
2022-07-29T05:55:50.505Z,19.10
2022-07-29T05:58:17.662Z,19.60
2022-07-29T06:00:44.756Z,20.00
2022-07-29T06:03:11.800Z,20.50
2022-07-29T06:05:38.800Z,21.00
2022-07-29T06:08:08.812Z,21.50
2022-07-29T06:10:36.203Z,21.70
2022-07-29T06:13:03.214Z,21.90
2022-07-29T06:15:30.261Z,21.80
2022-07-29T06:17:59.999Z,22.20
2022-07-29T06:20:31.753Z,22.40
2022-07-29T06:22:59.325Z,22.50
2022-07-29T06:25:26.561Z,22.70
2022-07-29T06:27:53.631Z,22.80
2022-07-29T06:30:20.760Z,23.20
2022-07-29T06:32:48.265Z,23.50
2022-07-29T06:35:39.028Z,23.80
2022-07-29T06:38:08.426Z,24.00
2022-07-29T06:41:01.671Z,24.00
2022-07-29T06:43:51.959Z,24.30
2022-07-29T06:46:22.086Z,24.30
2022-07-29T06:48:49.604Z,23.70
2022-07-29T06:51:23.115Z,23.60
2022-07-29T06:53:59.591Z,23.40
2022-07-29T06:56:29.511Z,23.60
2022-07-29T06:58:56.526Z,23.30
2022-07-29T07:01:23.604Z,23.30
2022-07-29T07:03:50.724Z,23.30
2022-07-29T07:06:17.804Z,23.10
2022-07-29T07:08:44.896Z,23.20
2022-07-29T07:11:12.390Z,23.50
2022-07-29T07:13:39.467Z,24.00
2022-07-29T07:16:06.603Z,24.70
2022-07-29T07:18:33.622Z,25.20
2022-07-29T07:21:00.685Z,25.50
2022-07-29T07:23:27.665Z,25.00
2022-07-29T07:25:54.784Z,24.50
2022-07-29T07:28:24.889Z,24.40
2022-07-29T07:30:52.805Z,24.40
2022-07-29T07:33:20.467Z,24.10
2022-07-29T07:35:47.764Z,23.70
2022-07-29T07:38:14.855Z,23.30
2022-07-29T07:40:42.083Z,23.10
2022-07-29T07:43:09.460Z,22.90
2022-07-29T08:06:20.057Z,27.60
2022-07-29T08:25:44.559Z,25.90
2022-07-29T08:28:22.070Z,25.00
2022-07-29T09:33:38.947Z,29.60
2022-07-29T11:42:03.141Z,26.40
2022-07-29T12:05:51.803Z,26.60
2022-07-29T12:08:24.385Z,26.50
2022-07-29T12:36:09.412Z,26.60
2022-07-29T12:39:58.180Z,26.40
2022-07-29T13:28:45.905Z,27.00
2022-07-29T13:35:34.186Z,27.00
2022-07-29T13:38:30.830Z,26.80
2022-07-29T14:02:43.803Z,26.80
2022-07-29T14:10:10.262Z,26.60
2022-07-29T14:19:44.103Z,26.60
2022-07-29T14:22:42.650Z,26.90
2022-07-29T14:29:37.201Z,27.00
2022-07-29T14:39:52.649Z,27.30
2022-07-29T15:12:07.428Z,27.20
2022-07-29T15:14:38.778Z,27.20
2022-07-29T15:17:06.394Z,27.30
2022-07-29T15:19:33.899Z,27.40
2022-07-29T15:22:01.430Z,27.30
2022-07-29T15:24:40.481Z,27.30
2022-07-29T15:27:48.870Z,27.40
2022-07-29T15:30:33.619Z,27.50
2022-07-29T15:33:05.161Z,27.80
2022-07-29T15:35:32.960Z,27.90
2022-07-29T15:38:00.282Z,27.90
2022-07-29T15:40:27.588Z,27.80
2022-07-29T15:42:54.906Z,27.80
2022-07-29T15:45:21.887Z,27.80
2022-07-29T15:47:48.918Z,27.70
2022-07-29T15:50:16.912Z,27.60
2022-07-29T15:52:44.658Z,27.60
2022-07-29T15:55:11.621Z,27.60
2022-07-29T15:57:38.631Z,27.70
2022-07-29T16:00:06.148Z,27.70
2022-07-29T16:02:36.160Z,27.70
2022-07-29T16:05:03.079Z,27.70
2022-07-29T16:07:31.382Z,27.80
2022-07-29T16:09:59.651Z,27.70
2022-07-29T16:12:26.600Z,27.70
2022-07-29T16:14:53.616Z,27.70
2022-07-29T16:17:20.792Z,27.60
2022-07-29T16:19:48.143Z,27.50
2022-07-29T16:22:15.310Z,27.40
2022-07-29T16:24:42.394Z,27.30
2022-07-29T16:27:09.588Z,27.30
2022-07-29T16:29:37.505Z,27.20
2022-07-29T16:32:05.902Z,27.30
2022-07-29T16:34:32.965Z,27.30
2022-07-29T16:37:00.373Z,27.20
2022-07-29T16:39:27.634Z,27.30
2022-07-29T16:41:58.308Z,27.40
2022-07-29T16:44:27.444Z,27.50
2022-07-29T16:46:56.086Z,27.70
2022-07-29T16:49:25.978Z,27.80
2022-07-29T16:51:53.905Z,27.70
2022-07-29T16:54:20.907Z,27.70
2022-07-29T16:56:47.892Z,27.60
2022-07-29T16:59:14.864Z,27.60
2022-07-29T17:01:41.878Z,27.50
2022-07-29T17:04:09.328Z,27.40
2022-07-29T17:06:40.269Z,27.30
2022-07-29T17:09:08.015Z,27.10
2022-07-29T17:11:52.373Z,27.00
2022-07-29T19:04:47.400Z,23.10
2022-07-29T19:07:14.360Z,23.20
2022-07-29T19:09:43.643Z,23.20
2022-07-29T19:12:16.587Z,23.10
2022-07-29T19:14:44.496Z,23.10
2022-07-29T19:17:11.503Z,23.00
2022-07-29T19:19:38.456Z,22.90
2022-07-29T19:22:05.584Z,22.90
2022-07-29T19:24:32.535Z,22.90
2022-07-29T19:26:59.967Z,22.90
2022-07-29T19:29:27.592Z,22.80
2022-07-29T19:31:54.740Z,22.70
2022-07-29T19:34:21.788Z,22.70
2022-07-29T19:36:48.780Z,22.60
2022-07-29T19:39:15.859Z,22.50
2022-07-29T19:41:42.839Z,22.40
2022-07-29T19:44:11.423Z,22.40
2022-07-29T19:46:38.780Z,22.40
2022-07-29T19:49:10.153Z,22.30
2022-07-29T19:51:37.312Z,22.20
2022-07-29T19:54:04.359Z,22.20
2022-07-29T19:56:32.041Z,22.10
2022-07-29T19:59:00.730Z,22.10
2022-07-29T20:01:29.003Z,22.10
2022-07-29T20:03:56.010Z,22.10
2022-07-29T20:06:23.253Z,22.00
2022-07-29T20:08:50.181Z,21.90
2022-07-29T20:11:17.236Z,21.80
2022-07-29T20:13:44.190Z,21.70
2022-07-29T20:16:11.219Z,21.70
2022-07-29T20:18:38.365Z,21.60
2022-07-29T20:21:05.362Z,21.50
2022-07-29T20:23:33.386Z,21.50
2022-07-29T20:26:00.739Z,21.40
2022-07-29T20:28:27.829Z,21.40
2022-07-29T20:30:54.943Z,21.40
2022-07-29T20:33:21.980Z,21.30
2022-07-29T20:35:49.031Z,21.30
2022-07-29T20:38:18.306Z,21.20
2022-07-29T20:40:45.582Z,21.20
2022-07-29T20:43:12.707Z,21.10
2022-07-29T20:45:39.815Z,21.00
2022-07-29T20:48:07.046Z,20.90
2022-07-29T20:50:35.487Z,20.80
2022-07-29T20:53:02.426Z,20.70
2022-07-29T20:55:29.372Z,20.70
2022-07-29T20:57:56.348Z,20.60
2022-07-29T21:00:23.423Z,20.50
2022-07-29T21:02:50.416Z,20.40
2022-07-29T21:05:17.491Z,20.30
2022-07-29T21:07:44.454Z,20.30
2022-07-29T21:10:11.564Z,20.20
2022-07-29T21:12:38.521Z,20.20
2022-07-29T21:15:06.675Z,20.20
2022-07-29T21:17:39.069Z,20.10
2022-07-29T21:20:08.685Z,20.10
2022-07-29T21:22:35.684Z,20.10
2022-07-29T21:25:02.843Z,19.90
2022-07-29T21:27:48.351Z,19.90
2022-07-29T21:30:15.321Z,19.80
2022-07-29T21:32:42.600Z,19.70
2022-07-29T21:35:22.358Z,19.70
2022-07-29T21:37:58.985Z,19.70
2022-07-29T21:40:26.003Z,19.70
2022-07-29T21:42:53.064Z,19.60
2022-07-29T21:45:20.069Z,19.60
2022-07-29T21:47:46.987Z,19.50
2022-07-29T21:50:13.981Z,19.50
2022-07-29T21:52:41.037Z,19.40
2022-07-29T21:55:10.554Z,19.40
2022-07-29T21:57:38.636Z,19.50
2022-07-29T22:00:06.362Z,19.50
2022-07-29T22:02:39.501Z,19.50
2022-07-29T22:05:06.626Z,19.60
2022-07-29T22:07:55.799Z,19.70
2022-07-29T22:10:20.678Z,19.70
2022-07-29T22:12:51.055Z,19.80
2022-07-29T22:15:18.134Z,19.90
2022-07-29T22:17:45.142Z,19.90
2022-07-29T22:20:12.319Z,20.00
2022-07-29T22:22:39.569Z,20.00
2022-07-29T22:25:07.295Z,20.10
2022-07-29T22:27:34.427Z,20.10
2022-07-29T22:30:01.742Z,20.00
2022-07-29T22:32:28.784Z,20.00
2022-07-29T22:34:55.741Z,20.00
2022-07-29T22:37:22.772Z,19.90
2022-07-29T22:39:49.762Z,19.90
2022-07-29T22:42:16.774Z,19.80
2022-07-29T22:44:43.764Z,19.70
2022-07-29T22:47:10.912Z,19.70
2022-07-29T22:49:37.844Z,19.60
2022-07-29T22:52:05.227Z,19.60
2022-07-29T22:54:32.181Z,19.50
2022-07-29T22:56:59.379Z,19.50
2022-07-29T22:59:26.552Z,19.40
2022-07-29T23:01:53.621Z,19.30
2022-07-29T23:04:23.832Z,19.20
2022-07-29T23:06:51.270Z,19.20
2022-07-29T23:09:18.440Z,19.20
2022-07-29T23:11:47.239Z,19.10
2022-07-29T23:14:14.252Z,19.10
2022-07-29T23:16:41.245Z,19.00
2022-07-29T23:19:08.729Z,19.00
2022-07-29T23:21:35.807Z,18.90
2022-07-29T23:24:02.752Z,18.90
2022-07-29T23:26:30.300Z,18.90
2022-07-29T23:28:57.310Z,18.90
2022-07-29T23:31:24.308Z,18.90
2022-07-29T23:33:51.250Z,18.80
2022-07-29T23:36:20.254Z,18.80
2022-07-29T23:38:48.103Z,18.80
2022-07-29T23:41:15.310Z,18.70
2022-07-29T23:43:42.283Z,18.60
2022-07-29T23:46:09.255Z,18.60
2022-07-29T23:48:36.416Z,18.50
2022-07-29T23:51:03.550Z,18.40
2022-07-29T23:53:30.553Z,18.30
2022-07-29T23:55:57.563Z,18.30
2022-07-29T23:58:24.580Z,18.20
